createdAt,value
2022-11-28T00:01:20.675Z,7.13
2022-11-28T00:04:03.982Z,8.77
2022-11-28T00:06:49.055Z,7.88
2022-11-28T00:09:32.068Z,8.05
2022-11-28T00:12:14.767Z,6.80
2022-11-28T00:14:58.929Z,7.28
2022-11-28T00:17:41.722Z,7.50
2022-11-28T00:20:24.746Z,7.30
2022-11-28T00:23:07.477Z,6.90
2022-11-28T00:25:57.247Z,8.23
2022-11-28T00:28:40.093Z,8.38
2022-11-28T00:31:25.354Z,7.28
2022-11-28T00:34:08.060Z,8.40
2022-11-28T00:36:50.737Z,5.85
2022-11-28T00:39:33.509Z,7.57
2022-11-28T00:42:16.614Z,4.57
2022-11-28T00:44:59.426Z,8.13
2022-11-28T00:47:43.485Z,5.90
2022-11-28T00:50:26.396Z,8.25
2022-11-28T00:53:09.213Z,8.60
2022-11-28T00:55:51.904Z,8.65
2022-11-28T00:58:35.069Z,7.13
2022-11-28T01:01:18.931Z,7.68
2022-11-28T01:04:04.804Z,9.05
2022-11-28T01:06:48.473Z,7.90
2022-11-28T01:09:31.144Z,8.95
2022-11-28T01:12:13.865Z,10.55
2022-11-28T01:14:58.251Z,6.57
2022-11-28T01:17:40.951Z,8.75
2022-11-28T01:20:24.991Z,8.52
2022-11-28T01:23:07.657Z,6.05
2022-11-28T01:25:50.356Z,6.28
2022-11-28T01:28:33.128Z,6.85
2022-11-28T01:31:18.107Z,6.80
2022-11-28T01:34:00.842Z,5.72
2022-11-28T01:36:44.961Z,6.05
2022-11-28T01:39:28.997Z,7.28
2022-11-28T01:42:16.752Z,5.55
2022-11-28T01:45:05.526Z,6.13
2022-11-28T01:47:49.277Z,5.03
2022-11-28T01:50:33.956Z,6.78
2022-11-28T01:53:18.268Z,6.15
2022-11-28T01:56:04.355Z,8.02
2022-11-28T01:58:50.259Z,8.45
2022-11-28T02:01:33.060Z,5.63
2022-11-28T02:04:15.911Z,5.97
2022-11-28T02:06:58.673Z,7.32
2022-11-28T02:09:42.756Z,6.25
2022-11-28T02:12:33.071Z,6.63
2022-11-28T02:15:23.630Z,6.63
2022-11-28T02:18:14.046Z,6.50
2022-11-28T02:21:04.743Z,5.22
2022-11-28T02:24:06.327Z,6.65
2022-11-28T02:27:07.412Z,7.15
2022-11-28T02:29:58.661Z,7.20
2022-11-28T02:32:59.310Z,6.45
2022-11-28T02:35:53.540Z,6.00
2022-11-28T02:38:42.758Z,6.68
2022-11-28T02:41:29.580Z,6.78
2022-11-28T02:44:14.941Z,6.10
2022-11-28T02:47:00.869Z,6.68
2022-11-28T02:49:48.464Z,5.93
2022-11-28T02:52:34.966Z,5.40
2022-11-28T02:55:18.081Z,5.28
2022-11-28T02:58:01.709Z,6.18
2022-11-28T03:00:45.786Z,8.98
2022-11-28T03:03:43.468Z,6.28
2022-11-28T03:06:33.025Z,7.15
2022-11-28T03:09:44.587Z,6.32
2022-11-28T03:12:32.370Z,7.00
2022-11-28T03:15:18.861Z,5.97
2022-11-28T03:18:05.626Z,5.55
2022-11-28T03:20:49.385Z,5.32
2022-11-28T03:23:35.001Z,6.13
2022-11-28T03:26:25.869Z,7.03
2022-11-28T03:29:10.125Z,6.13
2022-11-28T03:31:54.991Z,6.45
2022-11-28T03:34:39.610Z,5.22
2022-11-28T03:37:24.682Z,6.30
2022-11-28T03:40:09.382Z,9.52
2022-11-28T03:42:55.421Z,6.63
2022-11-28T03:45:39.722Z,6.00
2022-11-28T03:48:24.218Z,6.50
2022-11-28T03:51:09.566Z,6.72
2022-11-28T03:53:54.525Z,5.88
2022-11-28T03:56:40.672Z,5.80
2022-11-28T03:59:25.913Z,6.85
2022-11-28T04:02:12.982Z,7.70
2022-11-28T04:04:58.525Z,8.43
2022-11-28T04:07:43.954Z,6.25
2022-11-28T04:10:30.792Z,6.57
2022-11-28T04:13:16.635Z,5.45
2022-11-28T04:16:04.815Z,10.38
2022-11-28T04:18:51.780Z,7.80
2022-11-28T04:21:36.848Z,7.65
2022-11-28T04:24:20.687Z,6.93
2022-11-28T04:27:05.254Z,5.63
2022-11-28T04:29:49.478Z,6.20
2022-11-28T04:32:35.487Z,5.60
2022-11-28T04:35:20.443Z,7.38
2022-11-28T04:38:05.405Z,8.75
2022-11-28T04:40:49.466Z,6.63
2022-11-28T04:43:34.866Z,5.93
2022-11-28T04:46:20.290Z,6.68
2022-11-28T04:49:04.451Z,8.10
2022-11-28T04:51:50.762Z,7.15
2022-11-28T04:54:36.862Z,5.45
2022-11-28T04:57:22.838Z,6.38
2022-11-28T05:00:07.303Z,6.75
2022-11-28T05:02:51.636Z,6.80
2022-11-28T05:05:43.062Z,6.65
2022-11-28T05:08:26.200Z,6.50
2022-11-28T05:11:08.995Z,7.22
2022-11-28T05:13:51.642Z,9.50
2022-11-28T05:16:34.521Z,7.68
2022-11-28T05:19:17.414Z,6.40
2022-11-28T05:22:01.492Z,5.50
2022-11-28T05:24:44.436Z,7.07
2022-11-28T05:27:27.212Z,6.85
2022-11-28T05:30:11.334Z,7.30
2022-11-28T05:32:54.017Z,6.63
2022-11-28T05:35:39.741Z,5.75
2022-11-28T05:38:23.963Z,6.10
2022-11-28T05:41:07.107Z,7.28
2022-11-28T05:43:49.816Z,5.80
2022-11-28T05:46:32.609Z,6.25
2022-11-28T05:49:15.310Z,7.50
2022-11-28T05:51:58.035Z,5.47
2022-11-28T05:54:42.003Z,6.90
2022-11-28T05:57:25.119Z,6.32
2022-11-28T06:00:08.480Z,7.38
2022-11-28T06:03:01.141Z,8.30
2022-11-28T06:05:44.862Z,7.50
2022-11-28T06:08:27.864Z,8.50
2022-11-28T06:11:12.032Z,5.95
2022-11-28T06:13:54.726Z,8.57
2022-11-28T06:16:37.556Z,5.65
2022-11-28T06:19:20.251Z,6.00
2022-11-28T06:22:03.047Z,8.10
2022-11-28T06:24:45.675Z,7.18
2022-11-28T06:27:29.956Z,7.78
2022-11-28T06:30:12.796Z,8.55
2022-11-28T06:32:55.398Z,7.53
2022-11-28T06:35:38.221Z,8.27
2022-11-28T06:38:20.870Z,9.43
2022-11-28T06:41:05.177Z,7.72
2022-11-28T06:43:49.356Z,8.07
2022-11-28T06:46:32.107Z,7.90
2022-11-28T06:49:14.792Z,8.30
2022-11-28T06:51:57.535Z,8.02
2022-11-28T06:54:40.273Z,7.97
2022-11-28T06:57:22.995Z,6.68
2022-11-28T07:00:08.087Z,8.52
2022-11-28T07:02:50.875Z,8.35
2022-11-28T07:05:33.767Z,8.27
2022-11-28T07:08:16.380Z,9.00
2022-11-28T07:10:59.470Z,8.90
2022-11-28T07:13:43.463Z,7.57
2022-11-28T07:16:28.934Z,8.00
2022-11-28T07:19:12.290Z,6.88
2022-11-28T07:21:54.997Z,7.45
2022-11-28T07:24:37.833Z,8.23
2022-11-28T07:27:20.826Z,14.77
2022-11-28T07:30:03.641Z,9.07
2022-11-28T07:32:47.810Z,8.98
2022-11-28T07:35:31.778Z,7.65
2022-11-28T07:38:14.457Z,10.23
2022-11-28T07:40:57.168Z,7.60
2022-11-28T07:43:39.920Z,9.95
2022-11-28T07:46:22.930Z,9.50
2022-11-28T07:49:07.066Z,9.55
2022-11-28T07:51:49.907Z,9.98
2022-11-28T07:54:32.571Z,7.75
2022-11-28T07:57:15.489Z,9.38
2022-11-28T07:59:58.212Z,9.77
2022-11-28T08:02:41.027Z,8.02
2022-11-28T08:05:25.070Z,8.43
2022-11-28T08:08:07.855Z,10.25
2022-11-28T08:10:50.562Z,11.27
2022-11-28T08:13:33.425Z,8.43
2022-11-28T08:16:17.522Z,10.43
2022-11-28T08:19:01.421Z,8.93
2022-11-28T08:21:45.450Z,8.75
2022-11-28T08:24:28.117Z,10.43
2022-11-28T08:27:10.734Z,13.00
2022-11-28T08:29:54.168Z,10.40
2022-11-28T08:32:37.049Z,8.77
2022-11-28T08:35:20.197Z,11.63
2022-11-28T08:38:04.602Z,12.95
2022-11-28T08:40:47.609Z,12.20
2022-11-28T08:43:30.433Z,15.15
2022-11-28T08:46:14.140Z,9.57
2022-11-28T08:48:56.900Z,10.38
2022-11-28T08:51:39.601Z,11.18
2022-11-28T08:54:23.762Z,10.95
2022-11-28T08:57:06.588Z,13.10
2022-11-28T08:59:49.408Z,11.13
2022-11-28T09:02:32.061Z,11.50
2022-11-28T09:05:14.810Z,9.27
2022-11-28T09:07:58.531Z,12.05
2022-11-28T09:10:42.809Z,10.90
2022-11-28T09:13:25.464Z,10.52
2022-11-28T09:16:08.546Z,13.20
2022-11-28T09:18:51.944Z,11.45
2022-11-28T09:21:34.643Z,14.55
2022-11-28T09:24:17.297Z,10.75
2022-11-28T09:27:01.378Z,10.05
2022-11-28T09:29:44.924Z,10.98
2022-11-28T09:32:27.796Z,10.80
2022-11-28T09:35:10.669Z,10.52
2022-11-28T09:37:53.454Z,9.82
2022-11-28T09:40:37.571Z,10.95
2022-11-28T09:43:25.619Z,12.13
2022-11-28T09:46:12.622Z,12.27
2022-11-28T09:48:56.870Z,10.77
2022-11-28T09:51:45.857Z,9.32
2022-11-28T09:54:33.550Z,9.10
2022-11-28T09:57:19.257Z,11.73
2022-11-28T10:00:03.483Z,8.75
2022-11-28T10:03:08.388Z,10.40
2022-11-28T10:05:55.534Z,9.73
2022-11-28T10:08:41.559Z,11.15
2022-11-28T10:11:33.370Z,9.32
2022-11-28T10:14:33.822Z,11.50
2022-11-28T10:17:21.953Z,10.52
2022-11-28T10:20:07.096Z,10.10
2022-11-28T10:22:51.524Z,8.32
2022-11-28T10:25:36.007Z,11.25
2022-11-28T10:28:20.970Z,10.82
2022-11-28T10:31:07.006Z,10.20
2022-11-28T10:33:55.012Z,9.65
2022-11-28T10:36:42.761Z,10.82
2022-11-28T10:39:26.308Z,10.60
2022-11-28T10:42:14.114Z,10.43
2022-11-28T10:45:02.761Z,9.20
2022-11-28T10:47:54.779Z,11.57
2022-11-28T10:50:43.952Z,10.98
2022-11-28T10:53:34.050Z,11.60
2022-11-28T10:56:23.675Z,10.07
2022-11-28T10:59:11.743Z,9.98
2022-11-28T11:01:54.847Z,8.15
2022-11-28T11:04:38.143Z,13.82
2022-11-28T11:07:29.506Z,11.18
2022-11-28T11:10:16.744Z,10.75
2022-11-28T11:13:00.205Z,9.82
2022-11-28T11:15:43.298Z,11.60
2022-11-28T11:18:27.342Z,11.15
2022-11-28T11:21:14.981Z,9.90
2022-11-28T11:24:14.099Z,9.45
2022-11-28T11:27:03.556Z,10.65
2022-11-28T11:29:50.305Z,8.57
2022-11-28T11:32:34.324Z,9.50
2022-11-28T11:35:18.628Z,10.73
2022-11-28T11:38:16.553Z,9.63
2022-11-28T11:41:19.284Z,9.38
2022-11-28T11:44:16.784Z,9.52
2022-11-28T11:47:03.466Z,10.45
2022-11-28T11:49:47.646Z,8.57
2022-11-28T11:52:30.418Z,12.23
2022-11-28T11:55:14.773Z,8.85
2022-11-28T11:58:05.281Z,9.93
2022-11-28T12:00:48.460Z,12.50
2022-11-28T12:03:34.938Z,9.27
2022-11-28T12:06:19.525Z,10.13
2022-11-28T12:09:07.170Z,12.27
2022-11-28T12:11:51.530Z,11.43
2022-11-28T12:14:36.623Z,8.32
2022-11-28T12:17:47.826Z,10.02
2022-11-28T12:20:38.713Z,11.77
2022-11-28T12:23:29.088Z,12.60
2022-11-28T12:26:17.852Z,11.05
2022-11-28T12:29:06.945Z,7.57
2022-11-28T12:31:55.882Z,10.25
2022-11-28T12:34:43.612Z,8.45
2022-11-28T12:37:55.217Z,9.60
2022-11-28T12:40:42.210Z,9.65
2022-11-28T12:43:31.530Z,8.93
2022-11-28T12:46:18.284Z,9.32
2022-11-28T12:49:14.258Z,9.95
2022-11-28T12:52:02.777Z,9.32
2022-11-28T12:54:53.013Z,11.15
2022-11-28T12:57:39.897Z,9.10
2022-11-28T13:00:24.831Z,8.45
2022-11-28T13:03:12.001Z,8.18
2022-11-28T13:06:00.679Z,10.93
2022-11-28T13:08:49.877Z,11.38
2022-11-28T13:11:48.223Z,9.73
2022-11-28T13:14:34.556Z,8.73
2022-11-28T13:17:22.459Z,8.27
2022-11-28T13:20:12.465Z,7.85
2022-11-28T13:23:05.234Z,10.77
2022-11-28T13:25:51.910Z,8.20
2022-11-28T13:28:38.359Z,10.63
2022-11-28T13:31:24.331Z,11.52
2022-11-28T13:34:14.078Z,9.45
2022-11-28T13:40:07.787Z,9.68
2022-11-28T13:43:03.989Z,9.85
2022-11-28T13:45:52.648Z,8.68
2022-11-28T13:52:11.724Z,8.65
2022-11-28T13:54:54.990Z,8.82
2022-11-28T13:57:39.726Z,8.75
2022-11-28T14:00:25.299Z,9.82
2022-11-28T14:03:18.797Z,9.80
2022-11-28T14:06:03.262Z,9.65
2022-11-28T14:08:47.358Z,11.65
2022-11-28T14:11:41.658Z,9.90
2022-11-28T14:14:35.586Z,9.98
2022-11-28T14:17:25.563Z,14.48
2022-11-28T14:20:17.349Z,11.23
2022-11-28T14:23:08.156Z,8.68
2022-11-28T14:25:52.516Z,9.82
2022-11-28T14:28:40.153Z,9.07
2022-11-28T14:31:30.103Z,10.15
2022-11-28T14:34:34.351Z,10.38
2022-11-28T14:37:50.612Z,9.95
2022-11-28T14:41:00.985Z,10.45
2022-11-28T14:43:46.163Z,9.65
2022-11-28T14:46:31.633Z,9.43
2022-11-28T14:49:18.931Z,9.70
2022-11-28T14:52:37.223Z,12.93
2022-11-28T14:55:20.574Z,11.07
2022-11-28T14:58:05.328Z,9.85
2022-11-28T15:00:51.918Z,11.55
2022-11-28T15:03:40.149Z,12.18
2022-11-28T15:06:25.241Z,11.82
2022-11-28T15:09:09.093Z,11.85
2022-11-28T15:12:02.652Z,9.88
2022-11-28T15:14:48.280Z,12.93
2022-11-28T15:17:33.941Z,11.50
2022-11-28T15:20:23.070Z,12.23
2022-11-28T15:23:05.873Z,12.13
2022-11-28T15:25:54.941Z,10.38
2022-11-28T15:28:38.266Z,12.38
2022-11-28T15:31:22.677Z,9.90
2022-11-28T15:34:08.810Z,12.05
2022-11-28T15:36:54.122Z,12.05
2022-11-28T15:39:39.887Z,12.38
2022-11-28T15:42:25.345Z,10.05
2022-11-28T15:45:10.056Z,11.57
2022-11-28T15:47:53.098Z,12.02
2022-11-28T15:50:35.974Z,12.05
2022-11-28T15:53:21.550Z,10.55
2022-11-28T15:56:10.997Z,11.85
2022-11-28T15:58:54.694Z,10.75
2022-11-28T16:01:37.712Z,16.50
2022-11-28T16:04:21.191Z,14.18
2022-11-28T16:07:03.938Z,13.30
2022-11-28T16:09:54.915Z,13.43
2022-11-28T16:12:37.632Z,12.38
2022-11-28T16:15:21.372Z,13.18
2022-11-28T16:18:04.173Z,11.35
2022-11-28T16:20:47.211Z,14.45
2022-11-28T16:23:33.431Z,13.93
2022-11-28T16:26:23.381Z,13.80
2022-11-28T16:29:13.634Z,12.07
2022-11-28T16:31:56.382Z,11.57
2022-11-28T16:34:45.721Z,16.95
2022-11-28T16:37:29.768Z,13.25
2022-11-28T16:40:15.040Z,13.68
2022-11-28T16:42:59.728Z,11.65
2022-11-28T16:45:42.563Z,14.32
2022-11-28T16:48:27.080Z,13.48
2022-11-28T16:51:29.726Z,13.07
2022-11-28T16:54:28.611Z,13.68
2022-11-28T16:57:12.747Z,14.23
2022-11-28T16:59:57.630Z,13.50
2022-11-28T17:02:40.467Z,14.27
2022-11-28T17:05:23.230Z,11.90
2022-11-28T17:08:06.237Z,14.98
2022-11-28T17:10:48.965Z,13.63
2022-11-28T17:13:31.873Z,12.63
2022-11-28T17:16:20.597Z,11.52
2022-11-28T17:19:03.653Z,14.80
2022-11-28T17:21:47.282Z,13.07
2022-11-28T17:24:32.609Z,12.07
2022-11-28T17:27:16.142Z,14.48
2022-11-28T17:29:59.223Z,12.85
2022-11-28T17:32:43.663Z,12.85
2022-11-28T17:35:28.696Z,13.45
2022-11-28T17:38:11.360Z,13.68
2022-11-28T17:40:54.612Z,14.43
2022-11-28T17:43:39.406Z,16.30
2022-11-28T17:46:22.676Z,14.10
2022-11-28T17:49:07.029Z,13.85
2022-11-28T17:51:50.135Z,16.60
2022-11-28T17:54:35.016Z,14.32
2022-11-28T17:57:17.834Z,14.05
2022-11-28T18:00:00.872Z,12.45
2022-11-28T18:02:45.294Z,16.27
2022-11-28T18:05:29.343Z,11.57
2022-11-28T18:08:14.905Z,15.35
2022-11-28T18:11:04.676Z,14.45
2022-11-28T18:13:47.962Z,14.90
2022-11-28T18:16:31.275Z,15.65
2022-11-28T18:19:14.096Z,14.50
2022-11-28T18:21:58.253Z,15.10
2022-11-28T18:24:40.978Z,13.32
2022-11-28T18:27:23.675Z,13.60
2022-11-28T18:30:07.350Z,15.98
2022-11-28T18:32:50.109Z,16.17
2022-11-28T18:35:32.916Z,17.95
2022-11-28T18:38:16.996Z,17.25
2022-11-28T18:41:03.868Z,17.08
2022-11-28T18:43:46.618Z,17.25
2022-11-28T18:46:29.722Z,13.98
2022-11-28T18:49:12.729Z,12.48
2022-11-28T18:51:56.156Z,13.40
2022-11-28T18:54:40.582Z,16.83
2022-11-28T18:57:23.524Z,12.35
2022-11-28T19:00:06.889Z,17.98
2022-11-28T19:02:52.043Z,12.23
2022-11-28T19:05:39.072Z,14.23
2022-11-28T19:08:22.403Z,13.40
2022-11-28T19:11:09.485Z,14.57
2022-11-28T19:13:53.585Z,14.02
2022-11-28T19:16:38.004Z,14.65
2022-11-28T19:19:20.890Z,15.32
2022-11-28T19:22:04.842Z,16.20
2022-11-28T19:24:48.067Z,13.30
2022-11-28T19:27:32.533Z,14.88
2022-11-28T19:30:15.367Z,16.75
2022-11-28T19:32:58.412Z,15.18
2022-11-28T19:35:41.204Z,16.25
2022-11-28T19:38:23.948Z,14.20
2022-11-28T19:41:07.059Z,16.20
2022-11-28T19:43:51.567Z,14.35
2022-11-28T19:46:35.933Z,15.38
2022-11-28T19:49:20.822Z,14.70
2022-11-28T19:52:04.437Z,15.75
2022-11-28T19:54:47.411Z,19.17
2022-11-28T19:57:30.264Z,16.85
2022-11-28T20:00:15.757Z,17.67
2022-11-28T20:03:02.688Z,14.63
2022-11-28T20:05:45.391Z,17.55
2022-11-28T20:08:28.785Z,13.68
2022-11-28T20:11:12.384Z,14.65
2022-11-28T20:13:56.622Z,15.50
2022-11-28T20:16:41.231Z,15.35
2022-11-28T20:19:25.596Z,15.98
2022-11-28T20:22:09.636Z,14.05
2022-11-28T20:24:52.755Z,16.42
2022-11-28T20:27:35.949Z,16.17
2022-11-28T20:30:19.134Z,15.15
2022-11-28T20:33:03.713Z,14.95
2022-11-28T20:35:47.224Z,16.13
2022-11-28T20:38:30.208Z,17.25
2022-11-28T20:41:13.982Z,15.93
2022-11-28T20:43:57.437Z,16.02
2022-11-28T20:46:40.295Z,15.00
2022-11-28T20:49:24.429Z,15.73
2022-11-28T20:52:07.138Z,16.25
2022-11-28T20:54:49.904Z,17.17
2022-11-28T20:57:32.732Z,15.85
2022-11-28T21:00:15.855Z,17.65
2022-11-28T21:02:58.612Z,14.98
2022-11-28T21:05:42.776Z,14.20
2022-11-28T21:08:25.601Z,15.80
2022-11-28T21:11:09.080Z,17.15
2022-11-28T21:13:51.948Z,16.20
2022-11-28T21:16:34.914Z,17.52
2022-11-28T21:19:17.749Z,14.73
2022-11-28T21:22:02.214Z,16.23
2022-11-28T21:24:49.117Z,17.00
2022-11-28T21:27:32.228Z,15.55
2022-11-28T21:30:15.017Z,15.45
2022-11-28T21:32:57.674Z,13.85
2022-11-28T21:35:40.910Z,14.88
2022-11-28T21:38:24.974Z,17.50
2022-11-28T21:41:07.971Z,14.90
2022-11-28T21:43:50.698Z,16.25
2022-11-28T21:46:33.513Z,16.27
2022-11-28T21:49:17.046Z,17.60
2022-11-28T21:51:59.767Z,14.38
2022-11-28T21:54:43.986Z,15.52
2022-11-28T21:57:26.710Z,15.82
2022-11-28T22:00:20.709Z,17.90
2022-11-28T22:03:14.412Z,15.77
2022-11-28T22:06:00.695Z,14.32
2022-11-28T22:08:43.708Z,16.08
2022-11-28T22:11:29.580Z,14.40
2022-11-28T22:14:12.540Z,16.05
2022-11-28T22:16:55.349Z,16.88
2022-11-28T22:19:38.650Z,17.75
2022-11-28T22:22:22.200Z,15.75
2022-11-28T22:25:05.723Z,17.10
2022-11-28T22:27:49.786Z,14.48
2022-11-28T22:30:32.533Z,15.45
2022-11-28T22:33:15.501Z,15.50
2022-11-28T22:36:03.448Z,14.98
2022-11-28T22:38:46.881Z,16.33
2022-11-28T22:41:30.014Z,16.42
2022-11-28T22:44:17.343Z,16.45
2022-11-28T22:47:00.055Z,16.67
2022-11-28T22:49:43.628Z,17.60
2022-11-28T22:52:26.377Z,16.77
2022-11-28T22:55:09.443Z,16.33
2022-11-28T22:57:52.310Z,17.48
2022-11-28T23:00:37.104Z,16.88
2022-11-28T23:03:20.030Z,18.52
2022-11-28T23:06:04.998Z,18.65
2022-11-28T23:08:48.444Z,17.90
2022-11-28T23:11:32.681Z,18.85
2022-11-28T23:14:15.595Z,19.80
2022-11-28T23:17:00.378Z,19.20
2022-11-28T23:19:45.937Z,18.02
2022-11-28T23:22:28.751Z,22.20
2022-11-28T23:25:11.670Z,19.10
2022-11-28T23:27:54.494Z,19.45
2022-11-28T23:30:37.353Z,18.23
2022-11-28T23:33:21.514Z,23.48
2022-11-28T23:36:12.164Z,20.95
2022-11-28T23:38:56.366Z,20.48
2022-11-28T23:41:39.138Z,21.00
2022-11-28T23:44:22.062Z,20.15
2022-11-28T23:47:05.966Z,18.75
2022-11-28T23:49:50.057Z,19.42
2022-11-28T23:52:32.762Z,19.23
2022-11-28T23:55:15.498Z,24.10
2022-11-28T23:57:58.198Z,21.65
